sensor_id;sensor_type;location;lat;lon;timestamp;P1;durP1;ratioP1;P2;durP2;ratioP2
4555;SDS011;2290;48.674;9.018;2022-11-15T00:01:22;2.97;;;1.97;;
4555;SDS011;2290;48.674;9.018;2022-11-15T00:03:50;4.47;;;2.07;;
4555;SDS011;2290;48.674;9.018;2022-11-15T00:06:16;3.93;;;2.10;;
4555;SDS011;2290;48.674;9.018;2022-11-15T00:08:42;3.97;;;2.70;;
4555;SDS011;2290;48.674;9.018;2022-11-15T00:11:09;3.73;;;2.37;;
4555;SDS011;2290;48.674;9.018;2022-11-15T00:13:36;2.30;;;1.80;;
4555;SDS011;2290;48.674;9.018;2022-11-15T00:16:02;3.27;;;2.20;;
4555;SDS011;2290;48.674;9.018;2022-11-15T00:18:27;2.53;;;2.00;;
4555;SDS011;2290;48.674;9.018;2022-11-15T00:20:53;2.80;;;1.93;;
4555;SDS011;2290;48.674;9.018;2022-11-15T00:23:19;3.33;;;2.30;;
4555;SDS011;2290;48.674;9.018;2022-11-15T00:25:45;3.53;;;2.30;;
4555;SDS011;2290;48.674;9.018;2022-11-15T00:28:11;2.80;;;2.17;;
4555;SDS011;2290;48.674;9.018;2022-11-15T00:30:37;3.37;;;2.20;;
4555;SDS011;2290;48.674;9.018;2022-11-15T00:33:03;3.87;;;2.50;;
4555;SDS011;2290;48.674;9.018;2022-11-15T00:35:31;5.27;;;2.57;;
4555;SDS011;2290;48.674;9.018;2022-11-15T00:38:07;2.80;;;2.30;;
4555;SDS011;2290;48.674;9.018;2022-11-15T00:40:32;2.93;;;2.40;;
4555;SDS011;2290;48.674;9.018;2022-11-15T00:42:58;4.60;;;2.63;;
4555;SDS011;2290;48.674;9.018;2022-11-15T00:45:24;4.30;;;2.00;;
4555;SDS011;2290;48.674;9.018;2022-11-15T00:47:50;4.37;;;2.10;;
4555;SDS011;2290;48.674;9.018;2022-11-15T00:50:16;3.47;;;1.83;;
4555;SDS011;2290;48.674;9.018;2022-11-15T00:52:42;3.43;;;2.30;;
4555;SDS011;2290;48.674;9.018;2022-11-15T00:55:09;4.00;;;2.27;;
4555;SDS011;2290;48.674;9.018;2022-11-15T00:57:39;3.97;;;2.00;;
4555;SDS011;2290;48.674;9.018;2022-11-15T01:00:05;3.63;;;2.40;;
4555;SDS011;2290;48.674;9.018;2022-11-15T01:02:32;3.00;;;2.30;;
4555;SDS011;2290;48.674;9.018;2022-11-15T01:04:57;3.80;;;2.43;;
4555;SDS011;2290;48.674;9.018;2022-11-15T01:07:23;4.10;;;2.00;;
4555;SDS011;2290;48.674;9.018;2022-11-15T01:09:49;3.37;;;2.27;;
4555;SDS011;2290;48.674;9.018;2022-11-15T01:12:14;2.60;;;2.00;;
4555;SDS011;2290;48.674;9.018;2022-11-15T01:14:40;4.03;;;1.90;;
4555;SDS011;2290;48.674;9.018;2022-11-15T01:17:05;3.40;;;1.90;;
4555;SDS011;2290;48.674;9.018;2022-11-15T01:19:31;2.63;;;1.93;;
4555;SDS011;2290;48.674;9.018;2022-11-15T01:21:56;5.33;;;1.90;;
4555;SDS011;2290;48.674;9.018;2022-11-15T01:24:22;2.27;;;1.90;;
4555;SDS011;2290;48.674;9.018;2022-11-15T01:26:48;3.43;;;2.20;;
4555;SDS011;2290;48.674;9.018;2022-11-15T01:29:13;4.70;;;1.83;;
4555;SDS011;2290;48.674;9.018;2022-11-15T01:31:39;2.20;;;1.67;;
4555;SDS011;2290;48.674;9.018;2022-11-15T01:34:04;2.40;;;1.80;;
4555;SDS011;2290;48.674;9.018;2022-11-15T01:36:30;2.60;;;1.90;;
4555;SDS011;2290;48.674;9.018;2022-11-15T01:38:56;4.43;;;2.27;;
4555;SDS011;2290;48.674;9.018;2022-11-15T01:41:27;2.03;;;1.80;;
4555;SDS011;2290;48.674;9.018;2022-11-15T01:46:46;2.80;;;1.90;;
4555;SDS011;2290;48.674;9.018;2022-11-15T01:49:17;1.97;;;1.77;;
4555;SDS011;2290;48.674;9.018;2022-11-15T01:51:45;2.03;;;1.80;;
4555;SDS011;2290;48.674;9.018;2022-11-15T01:54:14;2.53;;;1.53;;
4555;SDS011;2290;48.674;9.018;2022-11-15T01:56:43;3.20;;;1.73;;
4555;SDS011;2290;48.674;9.018;2022-11-15T01:59:23;2.40;;;1.83;;
4555;SDS011;2290;48.674;9.018;2022-11-15T02:01:49;2.60;;;1.60;;
4555;SDS011;2290;48.674;9.018;2022-11-15T02:04:20;4.40;;;1.90;;
4555;SDS011;2290;48.674;9.018;2022-11-15T02:07:16;1.87;;;1.27;;
4555;SDS011;2290;48.674;9.018;2022-11-15T02:09:43;2.40;;;1.80;;
4555;SDS011;2290;48.674;9.018;2022-11-15T02:12:10;2.90;;;1.60;;
4555;SDS011;2290;48.674;9.018;2022-11-15T02:14:38;2.07;;;1.63;;
4555;SDS011;2290;48.674;9.018;2022-11-15T02:22:37;2.23;;;1.40;;
4555;SDS011;2290;48.674;9.018;2022-11-15T02:30:59;1.80;;;1.60;;
4555;SDS011;2290;48.674;9.018;2022-11-15T02:33:43;2.60;;;1.60;;
4555;SDS011;2290;48.674;9.018;2022-11-15T02:36:33;2.47;;;1.83;;
4555;SDS011;2290;48.674;9.018;2022-11-15T02:39:21;2.13;;;1.50;;
4555;SDS011;2290;48.674;9.018;2022-11-15T02:42:02;2.87;;;1.87;;
4555;SDS011;2290;48.674;9.018;2022-11-15T02:44:56;3.90;;;1.73;;
4555;SDS011;2290;48.674;9.018;2022-11-15T02:47:23;2.93;;;1.60;;
4555;SDS011;2290;48.674;9.018;2022-11-15T02:49:53;2.77;;;2.37;;
4555;SDS011;2290;48.674;9.018;2022-11-15T02:52:22;4.03;;;1.57;;
4555;SDS011;2290;48.674;9.018;2022-11-15T02:54:54;1.80;;;1.50;;
4555;SDS011;2290;48.674;9.018;2022-11-15T02:57:20;3.33;;;1.50;;
4555;SDS011;2290;48.674;9.018;2022-11-15T03:00:07;2.17;;;1.50;;
4555;SDS011;2290;48.674;9.018;2022-11-15T03:08:26;1.83;;;1.50;;
4555;SDS011;2290;48.674;9.018;2022-11-15T03:13:36;2.73;;;1.53;;
4555;SDS011;2290;48.674;9.018;2022-11-15T03:16:15;1.90;;;1.33;;
4555;SDS011;2290;48.674;9.018;2022-11-15T03:18:43;3.40;;;2.00;;
4555;SDS011;2290;48.674;9.018;2022-11-15T03:21:14;2.03;;;1.40;;
4555;SDS011;2290;48.674;9.018;2022-11-15T03:23:40;2.13;;;1.60;;
4555;SDS011;2290;48.674;9.018;2022-11-15T03:26:09;3.70;;;1.70;;
4555;SDS011;2290;48.674;9.018;2022-11-15T03:28:37;3.37;;;2.17;;
4555;SDS011;2290;48.674;9.018;2022-11-15T03:31:10;1.73;;;1.50;;
4555;SDS011;2290;48.674;9.018;2022-11-15T03:33:58;1.87;;;1.40;;
4555;SDS011;2290;48.674;9.018;2022-11-15T03:36:27;1.77;;;1.50;;
4555;SDS011;2290;48.674;9.018;2022-11-15T03:39:00;1.77;;;1.50;;
4555;SDS011;2290;48.674;9.018;2022-11-15T03:44:55;2.80;;;1.50;;
4555;SDS011;2290;48.674;9.018;2022-11-15T03:47:41;2.43;;;1.70;;
4555;SDS011;2290;48.674;9.018;2022-11-15T03:50:13;1.73;;;1.43;;
4555;SDS011;2290;48.674;9.018;2022-11-15T03:52:44;1.87;;;1.70;;
4555;SDS011;2290;48.674;9.018;2022-11-15T03:55:13;1.93;;;1.53;;
4555;SDS011;2290;48.674;9.018;2022-11-15T03:57:40;2.17;;;1.70;;
4555;SDS011;2290;48.674;9.018;2022-11-15T04:00:06;1.90;;;1.67;;
4555;SDS011;2290;48.674;9.018;2022-11-15T04:02:32;2.27;;;1.67;;
4555;SDS011;2290;48.674;9.018;2022-11-15T04:04:58;3.10;;;1.60;;
4555;SDS011;2290;48.674;9.018;2022-11-15T04:07:23;2.00;;;1.50;;
4555;SDS011;2290;48.674;9.018;2022-11-15T04:09:49;2.20;;;1.80;;
4555;SDS011;2290;48.674;9.018;2022-11-15T04:12:33;1.67;;;1.30;;
4555;SDS011;2290;48.674;9.018;2022-11-15T04:17:38;1.80;;;1.30;;
4555;SDS011;2290;48.674;9.018;2022-11-15T04:20:10;2.33;;;1.50;;
4555;SDS011;2290;48.674;9.018;2022-11-15T04:22:57;1.50;;;1.40;;
4555;SDS011;2290;48.674;9.018;2022-11-15T04:25:50;1.73;;;1.37;;
4555;SDS011;2290;48.674;9.018;2022-11-15T04:28:19;1.40;;;1.30;;
4555;SDS011;2290;48.674;9.018;2022-11-15T04:30:44;1.97;;;1.30;;
4555;SDS011;2290;48.674;9.018;2022-11-15T04:33:10;2.60;;;1.50;;
4555;SDS011;2290;48.674;9.018;2022-11-15T04:35:36;2.50;;;1.40;;
4555;SDS011;2290;48.674;9.018;2022-11-15T04:38:02;2.00;;;1.50;;
4555;SDS011;2290;48.674;9.018;2022-11-15T04:40:28;4.10;;;1.73;;
4555;SDS011;2290;48.674;9.018;2022-11-15T04:42:54;1.97;;;1.53;;
4555;SDS011;2290;48.674;9.018;2022-11-15T04:45:20;2.27;;;1.47;;
4555;SDS011;2290;48.674;9.018;2022-11-15T04:47:46;1.73;;;1.50;;
4555;SDS011;2290;48.674;9.018;2022-11-15T04:50:12;1.40;;;1.30;;
4555;SDS011;2290;48.674;9.018;2022-11-15T04:52:42;2.10;;;1.90;;
4555;SDS011;2290;48.674;9.018;2022-11-15T04:55:14;1.67;;;1.43;;
4555;SDS011;2290;48.674;9.018;2022-11-15T04:57:40;1.50;;;1.40;;
4555;SDS011;2290;48.674;9.018;2022-11-15T05:00:06;2.30;;;1.40;;
4555;SDS011;2290;48.674;9.018;2022-11-15T05:02:33;3.50;;;1.80;;
4555;SDS011;2290;48.674;9.018;2022-11-15T05:05:18;2.77;;;1.60;;
4555;SDS011;2290;48.674;9.018;2022-11-15T05:07:43;2.60;;;1.40;;
4555;SDS011;2290;48.674;9.018;2022-11-15T05:10:09;2.63;;;1.40;;
4555;SDS011;2290;48.674;9.018;2022-11-15T05:12:35;3.57;;;1.80;;
4555;SDS011;2290;48.674;9.018;2022-11-15T05:15:02;3.77;;;1.90;;
4555;SDS011;2290;48.674;9.018;2022-11-15T05:17:28;2.27;;;1.90;;
4555;SDS011;2290;48.674;9.018;2022-11-15T05:19:54;1.60;;;1.40;;
4555;SDS011;2290;48.674;9.018;2022-11-15T05:22:20;2.90;;;1.70;;
4555;SDS011;2290;48.674;9.018;2022-11-15T05:24:46;1.40;;;1.30;;
4555;SDS011;2290;48.674;9.018;2022-11-15T05:27:12;4.60;;;1.53;;
4555;SDS011;2290;48.674;9.018;2022-11-15T05:29:37;3.90;;;1.90;;
4555;SDS011;2290;48.674;9.018;2022-11-15T05:32:03;2.20;;;1.80;;
4555;SDS011;2290;48.674;9.018;2022-11-15T05:34:31;2.23;;;1.57;;
4555;SDS011;2290;48.674;9.018;2022-11-15T05:36:57;1.97;;;1.57;;
4555;SDS011;2290;48.674;9.018;2022-11-15T05:39:23;2.17;;;1.90;;
4555;SDS011;2290;48.674;9.018;2022-11-15T05:41:52;2.00;;;1.70;;
4555;SDS011;2290;48.674;9.018;2022-11-15T05:44:31;1.80;;;1.60;;
4555;SDS011;2290;48.674;9.018;2022-11-15T05:46:58;2.37;;;1.70;;
4555;SDS011;2290;48.674;9.018;2022-11-15T05:49:24;1.50;;;1.17;;
4555;SDS011;2290;48.674;9.018;2022-11-15T05:51:55;2.00;;;1.53;;
4555;SDS011;2290;48.674;9.018;2022-11-15T05:54:22;2.63;;;1.47;;
4555;SDS011;2290;48.674;9.018;2022-11-15T05:56:49;2.07;;;1.60;;
4555;SDS011;2290;48.674;9.018;2022-11-15T05:59:15;2.80;;;1.67;;
4555;SDS011;2290;48.674;9.018;2022-11-15T06:01:42;1.53;;;1.30;;
4555;SDS011;2290;48.674;9.018;2022-11-15T06:04:07;2.80;;;1.73;;
4555;SDS011;2290;48.674;9.018;2022-11-15T06:06:33;2.67;;;1.97;;
4555;SDS011;2290;48.674;9.018;2022-11-15T06:08:59;1.77;;;1.47;;
4555;SDS011;2290;48.674;9.018;2022-11-15T06:11:24;4.00;;;1.80;;
4555;SDS011;2290;48.674;9.018;2022-11-15T06:13:50;1.93;;;1.50;;
4555;SDS011;2290;48.674;9.018;2022-11-15T06:16:16;1.87;;;1.30;;
4555;SDS011;2290;48.674;9.018;2022-11-15T06:18:41;2.37;;;1.50;;
4555;SDS011;2290;48.674;9.018;2022-11-15T06:21:07;1.57;;;1.30;;
4555;SDS011;2290;48.674;9.018;2022-11-15T06:23:34;1.43;;;1.33;;
4555;SDS011;2290;48.674;9.018;2022-11-15T06:26:00;1.97;;;1.60;;
4555;SDS011;2290;48.674;9.018;2022-11-15T06:28:28;1.57;;;1.10;;
4555;SDS011;2290;48.674;9.018;2022-11-15T06:30:54;1.47;;;1.07;;
4555;SDS011;2290;48.674;9.018;2022-11-15T06:33:20;1.77;;;1.47;;
4555;SDS011;2290;48.674;9.018;2022-11-15T06:35:45;1.97;;;1.50;;
4555;SDS011;2290;48.674;9.018;2022-11-15T06:38:11;1.70;;;1.40;;
4555;SDS011;2290;48.674;9.018;2022-11-15T06:40:37;1.63;;;1.50;;
4555;SDS011;2290;48.674;9.018;2022-11-15T06:43:04;1.47;;;1.37;;
4555;SDS011;2290;48.674;9.018;2022-11-15T06:45:30;4.20;;;1.60;;
4555;SDS011;2290;48.674;9.018;2022-11-15T06:47:57;2.00;;;1.60;;
4555;SDS011;2290;48.674;9.018;2022-11-15T06:50:23;1.70;;;1.60;;
4555;SDS011;2290;48.674;9.018;2022-11-15T06:52:49;4.00;;;1.23;;
4555;SDS011;2290;48.674;9.018;2022-11-15T06:55:15;1.60;;;1.50;;
4555;SDS011;2290;48.674;9.018;2022-11-15T06:57:47;1.40;;;1.30;;
4555;SDS011;2290;48.674;9.018;2022-11-15T07:00:14;2.57;;;1.50;;
4555;SDS011;2290;48.674;9.018;2022-11-15T07:02:41;2.30;;;1.73;;
4555;SDS011;2290;48.674;9.018;2022-11-15T07:05:07;6.23;;;1.80;;
4555;SDS011;2290;48.674;9.018;2022-11-15T07:07:32;2.70;;;1.67;;
4555;SDS011;2290;48.674;9.018;2022-11-15T07:09:58;3.03;;;1.50;;
4555;SDS011;2290;48.674;9.018;2022-11-15T07:12:23;1.57;;;1.47;;
4555;SDS011;2290;48.674;9.018;2022-11-15T07:14:49;2.90;;;1.70;;
4555;SDS011;2290;48.674;9.018;2022-11-15T07:17:14;2.50;;;1.23;;
4555;SDS011;2290;48.674;9.018;2022-11-15T07:19:40;1.67;;;1.57;;
4555;SDS011;2290;48.674;9.018;2022-11-15T07:22:06;1.90;;;1.43;;
4555;SDS011;2290;48.674;9.018;2022-11-15T07:24:31;2.60;;;1.47;;
4555;SDS011;2290;48.674;9.018;2022-11-15T07:26:57;2.80;;;2.00;;
4555;SDS011;2290;48.674;9.018;2022-11-15T07:29:22;3.93;;;2.30;;
4555;SDS011;2290;48.674;9.018;2022-11-15T07:31:49;2.40;;;2.00;;
4555;SDS011;2290;48.674;9.018;2022-11-15T07:34:16;4.87;;;1.90;;
4555;SDS011;2290;48.674;9.018;2022-11-15T07:36:42;2.37;;;1.80;;
4555;SDS011;2290;48.674;9.018;2022-11-15T07:39:07;2.20;;;2.00;;
4555;SDS011;2290;48.674;9.018;2022-11-15T07:41:33;1.87;;;1.73;;
4555;SDS011;2290;48.674;9.018;2022-11-15T07:43:58;2.33;;;1.93;;
4555;SDS011;2290;48.674;9.018;2022-11-15T07:46:25;2.13;;;1.97;;
4555;SDS011;2290;48.674;9.018;2022-11-15T07:48:50;2.63;;;1.77;;
4555;SDS011;2290;48.674;9.018;2022-11-15T07:51:16;2.80;;;1.63;;
4555;SDS011;2290;48.674;9.018;2022-11-15T07:53:42;2.13;;;1.70;;
4555;SDS011;2290;48.674;9.018;2022-11-15T07:56:08;2.40;;;1.40;;
4555;SDS011;2290;48.674;9.018;2022-11-15T07:58:34;2.50;;;1.53;;
4555;SDS011;2290;48.674;9.018;2022-11-15T08:01:10;1.97;;;1.60;;
4555;SDS011;2290;48.674;9.018;2022-11-15T08:03:36;2.80;;;1.47;;
4555;SDS011;2290;48.674;9.018;2022-11-15T08:06:02;3.07;;;1.47;;
4555;SDS011;2290;48.674;9.018;2022-11-15T08:08:28;2.57;;;1.60;;
4555;SDS011;2290;48.674;9.018;2022-11-15T08:10:53;2.40;;;1.73;;
4555;SDS011;2290;48.674;9.018;2022-11-15T08:13:19;2.53;;;1.40;;
4555;SDS011;2290;48.674;9.018;2022-11-15T08:15:45;1.57;;;1.27;;
4555;SDS011;2290;48.674;9.018;2022-11-15T08:18:14;2.37;;;1.50;;
4555;SDS011;2290;48.674;9.018;2022-11-15T08:20:41;1.73;;;1.50;;
4555;SDS011;2290;48.674;9.018;2022-11-15T08:23:07;2.63;;;1.80;;
4555;SDS011;2290;48.674;9.018;2022-11-15T08:25:33;2.40;;;1.70;;
4555;SDS011;2290;48.674;9.018;2022-11-15T08:28:01;3.47;;;1.80;;
4555;SDS011;2290;48.674;9.018;2022-11-15T08:30:28;1.70;;;1.60;;
4555;SDS011;2290;48.674;9.018;2022-11-15T08:32:55;2.40;;;1.60;;
4555;SDS011;2290;48.674;9.018;2022-11-15T08:35:22;4.17;;;1.77;;
4555;SDS011;2290;48.674;9.018;2022-11-15T08:37:48;1.57;;;1.47;;
4555;SDS011;2290;48.674;9.018;2022-11-15T08:40:14;4.73;;;1.70;;
4555;SDS011;2290;48.674;9.018;2022-11-15T08:42:40;3.33;;;1.73;;
4555;SDS011;2290;48.674;9.018;2022-11-15T08:45:07;4.80;;;1.90;;
4555;SDS011;2290;48.674;9.018;2022-11-15T08:47:33;3.23;;;1.50;;
4555;SDS011;2290;48.674;9.018;2022-11-15T08:49:59;2.77;;;1.50;;
4555;SDS011;2290;48.674;9.018;2022-11-15T08:52:25;2.07;;;1.67;;
4555;SDS011;2290;48.674;9.018;2022-11-15T08:54:51;1.70;;;1.47;;
4555;SDS011;2290;48.674;9.018;2022-11-15T08:57:16;1.60;;;1.50;;
4555;SDS011;2290;48.674;9.018;2022-11-15T08:59:42;2.10;;;1.53;;
4555;SDS011;2290;48.674;9.018;2022-11-15T09:02:11;3.97;;;1.77;;
4555;SDS011;2290;48.674;9.018;2022-11-15T09:04:41;6.87;;;1.60;;
4555;SDS011;2290;48.674;9.018;2022-11-15T09:07:08;1.97;;;1.40;;
4555;SDS011;2290;48.674;9.018;2022-11-15T09:09:34;3.80;;;2.30;;
4555;SDS011;2290;48.674;9.018;2022-11-15T09:12:00;5.40;;;1.63;;
4555;SDS011;2290;48.674;9.018;2022-11-15T09:14:25;3.23;;;1.40;;
4555;SDS011;2290;48.674;9.018;2022-11-15T09:16:51;2.07;;;1.53;;
4555;SDS011;2290;48.674;9.018;2022-11-15T09:19:17;2.00;;;1.50;;
4555;SDS011;2290;48.674;9.018;2022-11-15T09:21:42;2.27;;;1.70;;
4555;SDS011;2290;48.674;9.018;2022-11-15T09:24:08;2.70;;;1.80;;
4555;SDS011;2290;48.674;9.018;2022-11-15T09:26:34;3.50;;;1.80;;
4555;SDS011;2290;48.674;9.018;2022-11-15T09:28:59;3.00;;;2.07;;
4555;SDS011;2290;48.674;9.018;2022-11-15T09:31:26;7.13;;;2.20;;
4555;SDS011;2290;48.674;9.018;2022-11-15T09:33:52;2.70;;;1.93;;
4555;SDS011;2290;48.674;9.018;2022-11-15T09:36:18;4.83;;;2.13;;
4555;SDS011;2290;48.674;9.018;2022-11-15T09:38:44;2.20;;;1.83;;
4555;SDS011;2290;48.674;9.018;2022-11-15T09:43:42;2.53;;;2.33;;
4555;SDS011;2290;48.674;9.018;2022-11-15T09:49:03;2.50;;;1.70;;
4555;SDS011;2290;48.674;9.018;2022-11-15T09:51:32;2.20;;;1.73;;
4555;SDS011;2290;48.674;9.018;2022-11-15T09:56:34;2.13;;;1.73;;
4555;SDS011;2290;48.674;9.018;2022-11-15T10:04:38;3.77;;;2.20;;
4555;SDS011;2290;48.674;9.018;2022-11-15T10:09:53;3.03;;;2.17;;
4555;SDS011;2290;48.674;9.018;2022-11-15T10:12:26;2.07;;;1.50;;
4555;SDS011;2290;48.674;9.018;2022-11-15T10:15:03;4.33;;;2.10;;
4555;SDS011;2290;48.674;9.018;2022-11-15T10:20:21;3.03;;;2.10;;
4555;SDS011;2290;48.674;9.018;2022-11-15T10:22:50;4.43;;;2.00;;
4555;SDS011;2290;48.674;9.018;2022-11-15T10:25:20;5.13;;;2.10;;
4555;SDS011;2290;48.674;9.018;2022-11-15T10:27:57;2.70;;;2.10;;
4555;SDS011;2290;48.674;9.018;2022-11-15T10:30:31;2.33;;;1.80;;
4555;SDS011;2290;48.674;9.018;2022-11-15T10:33:09;1.60;;;1.37;;
4555;SDS011;2290;48.674;9.018;2022-11-15T10:35:36;2.40;;;1.60;;
4555;SDS011;2290;48.674;9.018;2022-11-15T10:38:09;3.23;;;1.33;;
4555;SDS011;2290;48.674;9.018;2022-11-15T10:40:37;2.10;;;1.37;;
4555;SDS011;2290;48.674;9.018;2022-11-15T10:43:17;3.03;;;1.50;;
4555;SDS011;2290;48.674;9.018;2022-11-15T10:45:44;2.50;;;1.57;;
4555;SDS011;2290;48.674;9.018;2022-11-15T10:50:39;2.30;;;1.87;;
4555;SDS011;2290;48.674;9.018;2022-11-15T10:56:02;1.93;;;1.50;;
4555;SDS011;2290;48.674;9.018;2022-11-15T11:01:10;2.17;;;1.23;;
4555;SDS011;2290;48.674;9.018;2022-11-15T11:03:45;5.30;;;1.63;;
4555;SDS011;2290;48.674;9.018;2022-11-15T11:06:24;2.00;;;1.30;;
4555;SDS011;2290;48.674;9.018;2022-11-15T11:09:08;2.10;;;1.57;;
4555;SDS011;2290;48.674;9.018;2022-11-15T11:12:09;2.83;;;1.50;;
4555;SDS011;2290;48.674;9.018;2022-11-15T11:14:37;1.83;;;1.40;;
4555;SDS011;2290;48.674;9.018;2022-11-15T11:17:05;2.17;;;1.43;;
4555;SDS011;2290;48.674;9.018;2022-11-15T11:20:07;2.07;;;1.30;;
4555;SDS011;2290;48.674;9.018;2022-11-15T11:25:35;4.60;;;1.40;;
4555;SDS011;2290;48.674;9.018;2022-11-15T11:28:39;2.40;;;1.40;;
4555;SDS011;2290;48.674;9.018;2022-11-15T11:37:05;1.90;;;1.30;;
4555;SDS011;2290;48.674;9.018;2022-11-15T11:39:46;1.40;;;1.27;;
4555;SDS011;2290;48.674;9.018;2022-11-15T11:42:30;3.17;;;1.50;;
4555;SDS011;2290;48.674;9.018;2022-11-15T11:45:20;1.47;;;1.20;;
4555;SDS011;2290;48.674;9.018;2022-11-15T11:48:00;1.67;;;1.40;;
4555;SDS011;2290;48.674;9.018;2022-11-15T11:50:38;2.47;;;1.60;;
4555;SDS011;2290;48.674;9.018;2022-11-15T11:53:11;2.73;;;1.90;;
4555;SDS011;2290;48.674;9.018;2022-11-15T11:55:43;2.93;;;1.40;;
4555;SDS011;2290;48.674;9.018;2022-11-15T12:00:49;1.90;;;1.67;;
4555;SDS011;2290;48.674;9.018;2022-11-15T12:03:28;1.67;;;1.40;;
4555;SDS011;2290;48.674;9.018;2022-11-15T12:06:21;1.20;;;1.10;;
4555;SDS011;2290;48.674;9.018;2022-11-15T12:11:55;2.47;;;1.40;;
4555;SDS011;2290;48.674;9.018;2022-11-15T12:16:59;2.37;;;1.63;;
4555;SDS011;2290;48.674;9.018;2022-11-15T12:19:25;1.70;;;1.50;;
4555;SDS011;2290;48.674;9.018;2022-11-15T12:27:15;1.97;;;1.13;;
4555;SDS011;2290;48.674;9.018;2022-11-15T12:29:45;1.67;;;1.30;;
4555;SDS011;2290;48.674;9.018;2022-11-15T12:32:57;2.17;;;1.40;;
4555;SDS011;2290;48.674;9.018;2022-11-15T12:38:02;1.70;;;1.50;;
4555;SDS011;2290;48.674;9.018;2022-11-15T12:40:28;1.47;;;1.37;;
4555;SDS011;2290;48.674;9.018;2022-11-15T12:45:34;1.57;;;1.30;;
4555;SDS011;2290;48.674;9.018;2022-11-15T13:01:09;2.50;;;1.47;;
4555;SDS011;2290;48.674;9.018;2022-11-15T13:19:48;4.10;;;1.53;;
4555;SDS011;2290;48.674;9.018;2022-11-15T13:30:48;3.10;;;1.20;;
4555;SDS011;2290;48.674;9.018;2022-11-15T13:33:23;4.40;;;1.73;;
4555;SDS011;2290;48.674;9.018;2022-11-15T13:35:54;2.13;;;1.50;;
4555;SDS011;2290;48.674;9.018;2022-11-15T13:38:34;1.80;;;1.33;;
4555;SDS011;2290;48.674;9.018;2022-11-15T13:41:24;2.63;;;2.10;;
4555;SDS011;2290;48.674;9.018;2022-11-15T13:43:53;2.13;;;1.60;;
4555;SDS011;2290;48.674;9.018;2022-11-15T13:46:21;4.63;;;2.40;;
4555;SDS011;2290;48.674;9.018;2022-11-15T13:48:56;1.50;;;1.40;;
4555;SDS011;2290;48.674;9.018;2022-11-15T13:54:00;7.70;;;1.40;;
4555;SDS011;2290;48.674;9.018;2022-11-15T13:56:47;1.60;;;1.30;;
4555;SDS011;2290;48.674;9.018;2022-11-15T13:59:24;4.43;;;1.60;;
4555;SDS011;2290;48.674;9.018;2022-11-15T14:01:51;2.53;;;1.63;;
4555;SDS011;2290;48.674;9.018;2022-11-15T14:04:18;2.83;;;1.50;;
4555;SDS011;2290;48.674;9.018;2022-11-15T14:06:47;2.10;;;1.50;;
4555;SDS011;2290;48.674;9.018;2022-11-15T14:09:24;2.13;;;1.47;;
4555;SDS011;2290;48.674;9.018;2022-11-15T14:12:01;2.33;;;1.43;;
4555;SDS011;2290;48.674;9.018;2022-11-15T14:14:46;2.50;;;1.63;;
4555;SDS011;2290;48.674;9.018;2022-11-15T14:17:20;2.00;;;1.43;;
4555;SDS011;2290;48.674;9.018;2022-11-15T14:19:57;1.77;;;1.47;;
4555;SDS011;2290;48.674;9.018;2022-11-15T14:22:24;3.30;;;1.37;;
4555;SDS011;2290;48.674;9.018;2022-11-15T14:30:47;3.33;;;2.03;;
4555;SDS011;2290;48.674;9.018;2022-11-15T14:35:58;1.77;;;1.67;;
4555;SDS011;2290;48.674;9.018;2022-11-15T14:38:43;3.63;;;1.97;;
4555;SDS011;2290;48.674;9.018;2022-11-15T14:43:57;3.00;;;1.80;;
4555;SDS011;2290;48.674;9.018;2022-11-15T14:46:24;1.70;;;1.60;;
4555;SDS011;2290;48.674;9.018;2022-11-15T14:48:49;2.70;;;1.97;;
4555;SDS011;2290;48.674;9.018;2022-11-15T14:51:16;3.10;;;1.63;;
4555;SDS011;2290;48.674;9.018;2022-11-15T14:53:43;2.20;;;1.87;;
4555;SDS011;2290;48.674;9.018;2022-11-15T14:56:11;2.50;;;1.70;;
4555;SDS011;2290;48.674;9.018;2022-11-15T14:58:37;2.20;;;1.67;;
4555;SDS011;2290;48.674;9.018;2022-11-15T15:01:05;2.20;;;1.67;;
4555;SDS011;2290;48.674;9.018;2022-11-15T15:03:42;2.00;;;1.80;;
4555;SDS011;2290;48.674;9.018;2022-11-15T15:06:09;3.40;;;1.83;;
4555;SDS011;2290;48.674;9.018;2022-11-15T15:08:34;2.30;;;1.73;;
4555;SDS011;2290;48.674;9.018;2022-11-15T15:11:00;3.43;;;2.00;;
4555;SDS011;2290;48.674;9.018;2022-11-15T15:13:26;1.63;;;1.50;;
4555;SDS011;2290;48.674;9.018;2022-11-15T15:15:53;2.90;;;1.80;;
4555;SDS011;2290;48.674;9.018;2022-11-15T15:18:19;2.97;;;2.00;;
4555;SDS011;2290;48.674;9.018;2022-11-15T15:20:45;7.57;;;1.93;;
4555;SDS011;2290;48.674;9.018;2022-11-15T15:23:18;9.00;;;1.90;;
4555;SDS011;2290;48.674;9.018;2022-11-15T15:25:44;4.27;;;1.90;;
4555;SDS011;2290;48.674;9.018;2022-11-15T15:28:12;5.33;;;2.03;;
4555;SDS011;2290;48.674;9.018;2022-11-15T15:30:38;2.97;;;2.10;;
4555;SDS011;2290;48.674;9.018;2022-11-15T15:33:04;2.93;;;1.90;;
4555;SDS011;2290;48.674;9.018;2022-11-15T15:35:30;2.50;;;1.80;;
4555;SDS011;2290;48.674;9.018;2022-11-15T15:37:58;2.00;;;1.50;;
4555;SDS011;2290;48.674;9.018;2022-11-15T15:40:27;3.33;;;2.10;;
4555;SDS011;2290;48.674;9.018;2022-11-15T15:42:53;2.30;;;1.90;;
4555;SDS011;2290;48.674;9.018;2022-11-15T15:45:19;4.43;;;2.47;;
4555;SDS011;2290;48.674;9.018;2022-11-15T15:47:45;2.73;;;2.00;;
4555;SDS011;2290;48.674;9.018;2022-11-15T15:52:42;3.13;;;2.40;;
4555;SDS011;2290;48.674;9.018;2022-11-15T15:55:07;3.27;;;2.33;;
4555;SDS011;2290;48.674;9.018;2022-11-15T15:57:33;1.80;;;1.43;;
4555;SDS011;2290;48.674;9.018;2022-11-15T16:00:00;3.27;;;2.00;;
4555;SDS011;2290;48.674;9.018;2022-11-15T16:02:26;2.50;;;2.10;;
4555;SDS011;2290;48.674;9.018;2022-11-15T16:04:52;2.63;;;1.90;;
4555;SDS011;2290;48.674;9.018;2022-11-15T16:07:21;8.50;;;2.33;;
4555;SDS011;2290;48.674;9.018;2022-11-15T16:09:48;3.33;;;2.00;;
4555;SDS011;2290;48.674;9.018;2022-11-15T16:12:30;2.90;;;2.00;;
4555;SDS011;2290;48.674;9.018;2022-11-15T16:14:57;2.80;;;1.90;;
4555;SDS011;2290;48.674;9.018;2022-11-15T16:17:24;3.43;;;1.97;;
4555;SDS011;2290;48.674;9.018;2022-11-15T16:20:03;2.47;;;2.17;;
4555;SDS011;2290;48.674;9.018;2022-11-15T16:22:29;3.23;;;1.90;;
4555;SDS011;2290;48.674;9.018;2022-11-15T16:24:55;3.80;;;2.27;;
4555;SDS011;2290;48.674;9.018;2022-11-15T16:27:21;2.30;;;1.80;;
4555;SDS011;2290;48.674;9.018;2022-11-15T16:29:47;2.90;;;2.10;;
4555;SDS011;2290;48.674;9.018;2022-11-15T16:32:13;2.50;;;2.03;;
4555;SDS011;2290;48.674;9.018;2022-11-15T16:34:39;2.53;;;2.13;;
4555;SDS011;2290;48.674;9.018;2022-11-15T16:37:08;3.27;;;2.60;;
4555;SDS011;2290;48.674;9.018;2022-11-15T16:39:46;2.43;;;1.90;;
4555;SDS011;2290;48.674;9.018;2022-11-15T16:42:11;4.50;;;2.40;;
4555;SDS011;2290;48.674;9.018;2022-11-15T16:44:37;3.87;;;2.00;;
4555;SDS011;2290;48.674;9.018;2022-11-15T16:47:03;4.70;;;2.27;;
4555;SDS011;2290;48.674;9.018;2022-11-15T16:49:28;6.40;;;2.60;;
4555;SDS011;2290;48.674;9.018;2022-11-15T16:51:54;3.37;;;2.63;;
4555;SDS011;2290;48.674;9.018;2022-11-15T16:54:19;3.00;;;2.23;;
4555;SDS011;2290;48.674;9.018;2022-11-15T16:56:45;5.40;;;3.00;;
4555;SDS011;2290;48.674;9.018;2022-11-15T16:59:14;3.20;;;2.23;;
4555;SDS011;2290;48.674;9.018;2022-11-15T17:01:41;5.17;;;2.13;;
4555;SDS011;2290;48.674;9.018;2022-11-15T17:04:14;2.73;;;2.00;;
4555;SDS011;2290;48.674;9.018;2022-11-15T17:06:45;4.33;;;2.60;;
4555;SDS011;2290;48.674;9.018;2022-11-15T17:09:19;4.10;;;2.50;;
4555;SDS011;2290;48.674;9.018;2022-11-15T17:11:49;5.00;;;2.73;;
4555;SDS011;2290;48.674;9.018;2022-11-15T17:14:15;5.50;;;2.80;;
4555;SDS011;2290;48.674;9.018;2022-11-15T17:16:41;2.57;;;2.30;;
4555;SDS011;2290;48.674;9.018;2022-11-15T17:19:15;4.17;;;2.50;;
4555;SDS011;2290;48.674;9.018;2022-11-15T17:21:42;5.50;;;3.10;;
4555;SDS011;2290;48.674;9.018;2022-11-15T17:24:09;4.73;;;2.60;;
4555;SDS011;2290;48.674;9.018;2022-11-15T17:26:38;3.40;;;2.67;;
4555;SDS011;2290;48.674;9.018;2022-11-15T17:29:04;4.50;;;2.90;;
4555;SDS011;2290;48.674;9.018;2022-11-15T17:31:32;4.60;;;2.73;;
4555;SDS011;2290;48.674;9.018;2022-11-15T17:34:02;3.67;;;3.00;;
4555;SDS011;2290;48.674;9.018;2022-11-15T17:36:28;4.23;;;2.50;;
4555;SDS011;2290;48.674;9.018;2022-11-15T17:38:54;4.73;;;2.67;;
4555;SDS011;2290;48.674;9.018;2022-11-15T17:41:20;4.13;;;2.77;;
4555;SDS011;2290;48.674;9.018;2022-11-15T17:43:45;6.93;;;3.30;;
4555;SDS011;2290;48.674;9.018;2022-11-15T17:46:12;4.50;;;3.00;;